sensor_id;sensor_type;location;lat;lon;timestamp;pressure;altitude;pressure_sealevel;temperature;humidity
77207;BME280;66190;50.708;7.906;2023-07-02T00:01:45;95734.09;;;13.71;94.17
77207;BME280;66190;50.708;7.906;2023-07-02T00:04:15;95722.66;;;13.80;94.49
77207;BME280;66190;50.708;7.906;2023-07-02T00:06:48;95726.88;;;13.76;94.42
77207;BME280;66190;50.708;7.906;2023-07-02T00:09:14;95725.19;;;13.58;94.38
77207;BME280;66190;50.708;7.906;2023-07-02T00:11:42;95731.41;;;13.59;94.89
77207;BME280;66190;50.708;7.906;2023-07-02T00:14:09;95730.59;;;13.58;95.04
77207;BME280;66190;50.708;7.906;2023-07-02T00:16:37;95727.22;;;13.51;95.20
77207;BME280;66190;50.708;7.906;2023-07-02T00:19:02;95732.03;;;13.49;95.31
77207;BME280;66190;50.708;7.906;2023-07-02T00:21:28;95730.16;;;13.50;95.16
77207;BME280;66190;50.708;7.906;2023-07-02T00:23:55;95721.44;;;13.59;95.44
77207;BME280;66190;50.708;7.906;2023-07-02T00:26:23;95723.91;;;13.49;95.46
77207;BME280;66190;50.708;7.906;2023-07-02T00:28:49;95723.78;;;13.56;95.36
77207;BME280;66190;50.708;7.906;2023-07-02T00:31:14;95722.00;;;13.61;95.53
77207;BME280;66190;50.708;7.906;2023-07-02T00:33:39;95726.25;;;13.57;95.38
77207;BME280;66190;50.708;7.906;2023-07-02T00:36:05;95717.31;;;13.57;95.32
77207;BME280;66190;50.708;7.906;2023-07-02T00:38:30;95724.47;;;13.63;95.27
77207;BME280;66190;50.708;7.906;2023-07-02T00:40:55;95722.34;;;13.65;95.08
77207;BME280;66190;50.708;7.906;2023-07-02T00:43:21;95722.59;;;13.63;94.94
77207;BME280;66190;50.708;7.906;2023-07-02T00:45:46;95721.44;;;13.59;94.83
77207;BME280;66190;50.708;7.906;2023-07-02T00:48:12;95714.50;;;13.63;95.01
77207;BME280;66190;50.708;7.906;2023-07-02T00:50:39;95726.34;;;13.62;94.39
77207;BME280;66190;50.708;7.906;2023-07-02T00:53:04;95708.34;;;13.68;95.11
77207;BME280;66190;50.708;7.906;2023-07-02T00:55:30;95713.66;;;13.63;94.63
77207;BME280;66190;50.708;7.906;2023-07-02T00:57:55;95709.09;;;13.63;94.96
77207;BME280;66190;50.708;7.906;2023-07-02T01:00:22;95716.13;;;13.64;94.64
77207;BME280;66190;50.708;7.906;2023-07-02T01:02:56;95705.56;;;13.63;94.67
77207;BME280;66190;50.708;7.906;2023-07-02T01:05:28;95713.31;;;13.59;94.84
77207;BME280;66190;50.708;7.906;2023-07-02T01:08:01;95714.25;;;13.53;94.89
77207;BME280;66190;50.708;7.906;2023-07-02T01:10:26;95703.09;;;13.61;94.91
77207;BME280;66190;50.708;7.906;2023-07-02T01:12:53;95706.38;;;13.63;94.74
77207;BME280;66190;50.708;7.906;2023-07-02T01:15:19;95712.72;;;13.57;94.53
77207;BME280;66190;50.708;7.906;2023-07-02T01:17:44;95708.50;;;13.61;94.54
77207;BME280;66190;50.708;7.906;2023-07-02T01:20:12;95707.31;;;13.57;94.09
77207;BME280;66190;50.708;7.906;2023-07-02T01:22:38;95702.25;;;13.61;94.37
77207;BME280;66190;50.708;7.906;2023-07-02T01:25:04;95694.00;;;13.67;94.34
77207;BME280;66190;50.708;7.906;2023-07-02T01:27:31;95695.22;;;13.60;94.22
77207;BME280;66190;50.708;7.906;2023-07-02T01:29:57;95703.91;;;13.62;93.96
77207;BME280;66190;50.708;7.906;2023-07-02T01:32:22;95708.84;;;13.65;94.18
77207;BME280;66190;50.708;7.906;2023-07-02T01:34:48;95704.25;;;13.65;93.82
77207;BME280;66190;50.708;7.906;2023-07-02T01:37:14;95706.38;;;13.63;93.98
77207;BME280;66190;50.708;7.906;2023-07-02T01:39:40;95710.13;;;13.62;94.16
77207;BME280;66190;50.708;7.906;2023-07-02T01:42:24;95713.75;;;13.68;94.23
77207;BME280;66190;50.708;7.906;2023-07-02T01:44:49;95711.41;;;13.72;94.06
77207;BME280;66190;50.708;7.906;2023-07-02T01:47:16;95711.28;;;13.66;94.15
77207;BME280;66190;50.708;7.906;2023-07-02T01:49:41;95711.53;;;13.65;93.60
77207;BME280;66190;50.708;7.906;2023-07-02T01:52:07;95714.34;;;13.70;94.14
77207;BME280;66190;50.708;7.906;2023-07-02T01:54:34;95720.94;;;13.74;94.20
77207;BME280;66190;50.708;7.906;2023-07-02T01:56:59;95714.09;;;13.72;93.85
77207;BME280;66190;50.708;7.906;2023-07-02T01:59:25;95713.28;;;13.71;94.17
77207;BME280;66190;50.708;7.906;2023-07-02T02:01:51;95724.44;;;13.75;94.59
77207;BME280;66190;50.708;7.906;2023-07-02T02:04:17;95727.72;;;13.77;94.55
77207;BME280;66190;50.708;7.906;2023-07-02T02:06:42;95721.97;;;13.73;94.51
77207;BME280;66190;50.708;7.906;2023-07-02T02:09:08;95737.34;;;13.73;94.55
77207;BME280;66190;50.708;7.906;2023-07-02T02:11:39;95731.06;;;13.67;94.50
77207;BME280;66190;50.708;7.906;2023-07-02T02:14:04;95728.59;;;13.65;94.41
77207;BME280;66190;50.708;7.906;2023-07-02T02:16:30;95728.00;;;13.63;94.61
77207;BME280;66190;50.708;7.906;2023-07-02T02:18:55;95722.22;;;13.72;94.53
77207;BME280;66190;50.708;7.906;2023-07-02T02:21:21;95723.38;;;13.76;94.22
77207;BME280;66190;50.708;7.906;2023-07-02T02:23:47;95720.19;;;13.79;94.25
77207;BME280;66190;50.708;7.906;2023-07-02T02:26:13;95723.13;;;13.77;93.94
77207;BME280;66190;50.708;7.906;2023-07-02T02:28:39;95725.94;;;13.82;94.26
77207;BME280;66190;50.708;7.906;2023-07-02T02:31:04;95733.03;;;13.72;94.40
77207;BME280;66190;50.708;7.906;2023-07-02T02:33:30;95727.28;;;13.68;94.17
77207;BME280;66190;50.708;7.906;2023-07-02T02:35:56;95726.53;;;13.73;94.29
77207;BME280;66190;50.708;7.906;2023-07-02T02:38:21;95727.72;;;13.77;94.19
77207;BME280;66190;50.708;7.906;2023-07-02T02:40:46;95730.31;;;13.72;93.50
77207;BME280;66190;50.708;7.906;2023-07-02T02:43:12;95726.00;;;13.71;93.09
77207;BME280;66190;50.708;7.906;2023-07-02T02:45:38;95724.09;;;13.71;93.03
77207;BME280;66190;50.708;7.906;2023-07-02T02:48:04;95725.25;;;13.75;92.83
77207;BME280;66190;50.708;7.906;2023-07-02T02:50:29;95722.56;;;13.75;92.72
77207;BME280;66190;50.708;7.906;2023-07-02T02:52:54;95719.25;;;13.73;92.45
77207;BME280;66190;50.708;7.906;2023-07-02T02:55:20;95720.09;;;13.74;92.86
77207;BME280;66190;50.708;7.906;2023-07-02T02:57:45;95723.63;;;13.74;92.85
77207;BME280;66190;50.708;7.906;2023-07-02T03:00:11;95728.09;;;13.68;92.63
77207;BME280;66190;50.708;7.906;2023-07-02T03:02:37;95727.84;;;13.70;92.10
77207;BME280;66190;50.708;7.906;2023-07-02T03:05:03;95723.84;;;13.73;92.11
77207;BME280;66190;50.708;7.906;2023-07-02T03:07:29;95725.16;;;13.70;92.45
77207;BME280;66190;50.708;7.906;2023-07-02T03:09:55;95735.88;;;13.65;92.00
77207;BME280;66190;50.708;7.906;2023-07-02T03:12:21;95730.31;;;13.72;92.17
77207;BME280;66190;50.708;7.906;2023-07-02T03:14:47;95733.50;;;13.68;91.95
77207;BME280;66190;50.708;7.906;2023-07-02T03:17:16;95735.88;;;13.65;91.92
77207;BME280;66190;50.708;7.906;2023-07-02T03:19:42;95734.69;;;13.61;91.75
77207;BME280;66190;50.708;7.906;2023-07-02T03:22:07;95739.75;;;13.57;92.09
77207;BME280;66190;50.708;7.906;2023-07-02T03:24:32;95730.25;;;13.55;91.86
77207;BME280;66190;50.708;7.906;2023-07-02T03:26:58;95720.25;;;13.55;92.47
77207;BME280;66190;50.708;7.906;2023-07-02T03:29:23;95725.88;;;13.65;92.68
77207;BME280;66190;50.708;7.906;2023-07-02T03:31:49;95727.22;;;13.51;92.25
77207;BME280;66190;50.708;7.906;2023-07-02T03:34:14;95724.84;;;13.55;92.62
77207;BME280;66190;50.708;7.906;2023-07-02T03:36:39;95734.84;;;13.54;92.62
77207;BME280;66190;50.708;7.906;2023-07-02T03:39:05;95732.13;;;13.54;92.34
77207;BME280;66190;50.708;7.906;2023-07-02T03:41:31;95735.22;;;13.46;91.83
77207;BME280;66190;50.708;7.906;2023-07-02T03:43:56;95736.25;;;13.45;91.76
77207;BME280;66190;50.708;7.906;2023-07-02T03:46:22;95723.91;;;13.49;91.89
77207;BME280;66190;50.708;7.906;2023-07-02T03:48:47;95733.69;;;13.39;91.27
77207;BME280;66190;50.708;7.906;2023-07-02T03:51:13;95736.97;;;13.41;91.22
77207;BME280;66190;50.708;7.906;2023-07-02T03:53:40;95734.38;;;13.34;90.77
77207;BME280;66190;50.708;7.906;2023-07-02T03:56:05;95731.22;;;13.37;90.72
77207;BME280;66190;50.708;7.906;2023-07-02T03:58:31;95733.47;;;13.29;90.49
77207;BME280;66190;50.708;7.906;2023-07-02T04:00:56;95745.44;;;13.33;90.66
77207;BME280;66190;50.708;7.906;2023-07-02T04:03:21;95753.28;;;13.34;90.54
77207;BME280;66190;50.708;7.906;2023-07-02T04:05:47;95761.41;;;13.34;90.10
77207;BME280;66190;50.708;7.906;2023-07-02T04:08:12;95768.22;;;13.37;89.84
77207;BME280;66190;50.708;7.906;2023-07-02T04:10:37;95771.75;;;13.37;89.89
77207;BME280;66190;50.708;7.906;2023-07-02T04:13:03;95777.25;;;13.31;89.65
77207;BME280;66190;50.708;7.906;2023-07-02T04:15:28;95780.78;;;13.31;88.75
77207;BME280;66190;50.708;7.906;2023-07-02T04:17:54;95776.47;;;13.30;89.24
77207;BME280;66190;50.708;7.906;2023-07-02T04:20:20;95783.25;;;13.33;89.47
77207;BME280;66190;50.708;7.906;2023-07-02T04:22:46;95787.88;;;13.32;89.85
77207;BME280;66190;50.708;7.906;2023-07-02T04:25:12;95790.78;;;13.31;89.95
77207;BME280;66190;50.708;7.906;2023-07-02T04:27:44;95793.84;;;13.23;89.61
77207;BME280;66190;50.708;7.906;2023-07-02T04:30:10;95789.84;;;13.37;90.22
77207;BME280;66190;50.708;7.906;2023-07-02T04:32:37;95795.13;;;13.32;90.44
77207;BME280;66190;50.708;7.906;2023-07-02T04:35:05;95791.94;;;13.35;90.43
77207;BME280;66190;50.708;7.906;2023-07-02T04:37:31;95792.19;;;13.33;90.84
77207;BME280;66190;50.708;7.906;2023-07-02T04:39:56;95790.78;;;13.31;90.04
77207;BME280;66190;50.708;7.906;2023-07-02T04:42:21;95799.13;;;13.29;89.60
77207;BME280;66190;50.708;7.906;2023-07-02T04:44:47;95801.38;;;13.32;89.77
77207;BME280;66190;50.708;7.906;2023-07-02T04:47:12;95805.47;;;13.35;90.43
77207;BME280;66190;50.708;7.906;2023-07-02T04:49:38;95809.81;;;13.36;90.41
77207;BME280;66190;50.708;7.906;2023-07-02T04:52:04;95813.81;;;13.33;89.94
77207;BME280;66190;50.708;7.906;2023-07-02T04:54:29;95806.78;;;13.32;90.47
77207;BME280;66190;50.708;7.906;2023-07-02T04:56:55;95808.75;;;13.37;89.79
77207;BME280;66190;50.708;7.906;2023-07-02T04:59:21;95815.59;;;13.39;90.41
77207;BME280;66190;50.708;7.906;2023-07-02T05:01:47;95816.38;;;13.40;90.50
77207;BME280;66190;50.708;7.906;2023-07-02T05:04:12;95818.03;;;13.41;89.90
77207;BME280;66190;50.708;7.906;2023-07-02T05:06:38;95807.59;;;13.44;89.25
77207;BME280;66190;50.708;7.906;2023-07-02T05:09:03;95813.94;;;13.50;89.23
77207;BME280;66190;50.708;7.906;2023-07-02T05:11:29;95807.25;;;13.41;89.22
77207;BME280;66190;50.708;7.906;2023-07-02T05:13:54;95814.97;;;13.49;89.01
77207;BME280;66190;50.708;7.906;2023-07-02T05:16:20;95814.50;;;13.40;89.37
77207;BME280;66190;50.708;7.906;2023-07-02T05:18:45;95828.03;;;13.40;88.83
77207;BME280;66190;50.708;7.906;2023-07-02T05:21:11;95826.03;;;13.36;88.90
77207;BME280;66190;50.708;7.906;2023-07-02T05:23:36;95831.88;;;13.33;88.76
77207;BME280;66190;50.708;7.906;2023-07-02T05:26:02;95836.13;;;13.40;88.79
77207;BME280;66190;50.708;7.906;2023-07-02T05:28:27;95826.75;;;13.43;88.59
77207;BME280;66190;50.708;7.906;2023-07-02T05:30:53;95831.78;;;13.39;88.38
77207;BME280;66190;50.708;7.906;2023-07-02T05:33:18;95839.78;;;13.46;88.19
77207;BME280;66190;50.708;7.906;2023-07-02T05:35:43;95835.28;;;13.40;87.70
77207;BME280;66190;50.708;7.906;2023-07-02T05:38:11;95833.06;;;13.37;87.93
77207;BME280;66190;50.708;7.906;2023-07-02T05:40:36;95841.66;;;13.34;87.45
77207;BME280;66190;50.708;7.906;2023-07-02T05:43:02;95833.66;;;13.39;87.64
77207;BME280;66190;50.708;7.906;2023-07-02T05:45:28;95840.00;;;13.33;87.85
77207;BME280;66190;50.708;7.906;2023-07-02T05:47:54;95841.91;;;13.32;87.77
77207;BME280;66190;50.708;7.906;2023-07-02T05:50:19;95843.53;;;13.33;87.69
77207;BME280;66190;50.708;7.906;2023-07-02T05:52:44;95842.69;;;13.33;87.80
77207;BME280;66190;50.708;7.906;2023-07-02T05:55:11;95849.88;;;13.39;88.43
77207;BME280;66190;50.708;7.906;2023-07-02T05:57:37;95846.47;;;13.32;87.85
77207;BME280;66190;50.708;7.906;2023-07-02T06:00:04;95854.34;;;13.33;88.25
77207;BME280;66190;50.708;7.906;2023-07-02T06:02:30;95850.09;;;13.26;87.69
77207;BME280;66190;50.708;7.906;2023-07-02T06:04:56;95847.84;;;13.34;88.17
77207;BME280;66190;50.708;7.906;2023-07-02T06:07:22;95850.81;;;13.33;88.03
77207;BME280;66190;50.708;7.906;2023-07-02T06:09:47;95857.19;;;13.50;88.07
77207;BME280;66190;50.708;7.906;2023-07-02T06:12:13;95848.00;;;13.51;87.17
77207;BME280;66190;50.708;7.906;2023-07-02T06:14:38;95856.34;;;13.61;87.98
77207;BME280;66190;50.708;7.906;2023-07-02T06:17:03;95857.84;;;13.57;87.09
77207;BME280;66190;50.708;7.906;2023-07-02T06:19:31;95859.75;;;13.68;87.22
77207;BME280;66190;50.708;7.906;2023-07-02T06:21:57;95863.50;;;13.79;87.74
77207;BME280;66190;50.708;7.906;2023-07-02T06:24:22;95866.09;;;13.74;86.94
77207;BME280;66190;50.708;7.906;2023-07-02T06:26:48;95858.91;;;13.79;86.80
77207;BME280;66190;50.708;7.906;2023-07-02T06:29:13;95865.00;;;13.75;87.30
77207;BME280;66190;50.708;7.906;2023-07-02T06:31:39;95855.41;;;13.67;87.54
77207;BME280;66190;50.708;7.906;2023-07-02T06:34:04;95868.44;;;13.70;87.53
77207;BME280;66190;50.708;7.906;2023-07-02T06:36:29;95866.81;;;13.69;87.61
77207;BME280;66190;50.708;7.906;2023-07-02T06:38:55;95875.97;;;13.68;87.79
77207;BME280;66190;50.708;7.906;2023-07-02T06:41:20;95872.53;;;13.73;87.92
77207;BME280;66190;50.708;7.906;2023-07-02T06:43:46;95874.91;;;13.69;88.02
77207;BME280;66190;50.708;7.906;2023-07-02T06:46:11;95872.78;;;13.71;88.00
77207;BME280;66190;50.708;7.906;2023-07-02T06:48:37;95884.53;;;13.77;88.13
77207;BME280;66190;50.708;7.906;2023-07-02T06:51:02;95883.47;;;13.66;88.01
77207;BME280;66190;50.708;7.906;2023-07-02T06:53:28;95885.84;;;13.74;88.43
77207;BME280;66190;50.708;7.906;2023-07-02T06:55:53;95886.75;;;13.80;88.02
77207;BME280;66190;50.708;7.906;2023-07-02T06:58:18;95891.81;;;13.76;88.65
77207;BME280;66190;50.708;7.906;2023-07-02T07:00:44;95894.50;;;13.76;87.97
77207;BME280;66190;50.708;7.906;2023-07-02T07:03:10;95894.75;;;13.75;88.26
77207;BME280;66190;50.708;7.906;2023-07-02T07:05:35;95899.00;;;13.82;88.57
77207;BME280;66190;50.708;7.906;2023-07-02T07:08:01;95902.97;;;13.80;88.73
77207;BME280;66190;50.708;7.906;2023-07-02T07:10:26;95909.34;;;13.85;88.80
77207;BME280;66190;50.708;7.906;2023-07-02T07:12:51;95909.81;;;13.82;88.79
77207;BME280;66190;50.708;7.906;2023-07-02T07:15:17;95911.56;;;13.77;88.60
77207;BME280;66190;50.708;7.906;2023-07-02T07:17:42;95906.50;;;13.80;89.25
77207;BME280;66190;50.708;7.906;2023-07-02T07:20:08;95913.44;;;13.99;89.04
77207;BME280;66190;50.708;7.906;2023-07-02T07:22:34;95914.28;;;14.00;88.44
77207;BME280;66190;50.708;7.906;2023-07-02T07:24:59;95916.25;;;14.04;88.75
77207;BME280;66190;50.708;7.906;2023-07-02T07:27:25;95904.72;;;14.20;88.65
77207;BME280;66190;50.708;7.906;2023-07-02T07:29:50;95911.03;;;14.37;87.97
77207;BME280;66190;50.708;7.906;2023-07-02T07:32:15;95907.25;;;14.50;87.51
77207;BME280;66190;50.708;7.906;2023-07-02T07:34:42;95906.19;;;14.51;86.58
77207;BME280;66190;50.708;7.906;2023-07-02T07:37:07;95917.91;;;14.68;87.33
77207;BME280;66190;50.708;7.906;2023-07-02T07:39:32;95909.75;;;14.96;86.70
77207;BME280;66190;50.708;7.906;2023-07-02T07:41:58;95908.81;;;15.19;85.83
77207;BME280;66190;50.708;7.906;2023-07-02T07:44:24;95913.59;;;15.28;84.57
77207;BME280;66190;50.708;7.906;2023-07-02T07:46:54;95918.38;;;15.21;83.84
77207;BME280;66190;50.708;7.906;2023-07-02T07:49:19;95904.91;;;15.26;82.50
77207;BME280;66190;50.708;7.906;2023-07-02T07:51:45;95906.94;;;15.19;81.74
77207;BME280;66190;50.708;7.906;2023-07-02T07:54:10;95909.22;;;15.11;81.74
77207;BME280;66190;50.708;7.906;2023-07-02T07:56:35;95920.41;;;15.14;82.84
77207;BME280;66190;50.708;7.906;2023-07-02T07:59:01;95916.09;;;15.02;83.13
77207;BME280;66190;50.708;7.906;2023-07-02T08:01:26;95916.69;;;15.04;84.03
77207;BME280;66190;50.708;7.906;2023-07-02T08:03:53;95916.59;;;14.99;82.23
77207;BME280;66190;50.708;7.906;2023-07-02T08:06:18;95924.78;;;14.87;82.06
77207;BME280;66190;50.708;7.906;2023-07-02T08:08:43;95922.69;;;15.06;83.98
77207;BME280;66190;50.708;7.906;2023-07-02T08:11:09;95914.50;;;15.17;83.29
77207;BME280;66190;50.708;7.906;2023-07-02T08:13:34;95910.31;;;15.26;81.40
77207;BME280;66190;50.708;7.906;2023-07-02T08:16:00;95918.66;;;15.53;81.20
77207;BME280;66190;50.708;7.906;2023-07-02T08:18:25;95916.75;;;15.53;79.24
77207;BME280;66190;50.708;7.906;2023-07-02T08:20:51;95921.97;;;15.55;78.77
77207;BME280;66190;50.708;7.906;2023-07-02T08:23:16;95924.91;;;15.53;79.13
77207;BME280;66190;50.708;7.906;2023-07-02T08:25:41;95923.25;;;15.69;79.20
77207;BME280;66190;50.708;7.906;2023-07-02T08:28:07;95928.84;;;15.79;75.85
77207;BME280;66190;50.708;7.906;2023-07-02T08:30:32;95925.72;;;15.87;75.17
77207;BME280;66190;50.708;7.906;2023-07-02T08:32:58;95931.97;;;15.87;75.33
77207;BME280;66190;50.708;7.906;2023-07-02T08:35:23;95934.59;;;15.82;74.18
77207;BME280;66190;50.708;7.906;2023-07-02T08:37:48;95932.28;;;15.91;75.64
77207;BME280;66190;50.708;7.906;2023-07-02T08:40:20;95936.38;;;15.93;72.08
77207;BME280;66190;50.708;7.906;2023-07-02T08:42:46;95939.81;;;16.06;72.20
77207;BME280;66190;50.708;7.906;2023-07-02T08:45:15;95940.31;;;16.19;72.28
77207;BME280;66190;50.708;7.906;2023-07-02T08:47:42;95934.19;;;16.29;70.81
77207;BME280;66190;50.708;7.906;2023-07-02T08:50:08;95945.25;;;16.22;70.78
77207;BME280;66190;50.708;7.906;2023-07-02T08:52:33;95945.75;;;16.41;71.47
77207;BME280;66190;50.708;7.906;2023-07-02T08:54:59;95950.28;;;16.35;68.41
77207;BME280;66190;50.708;7.906;2023-07-02T08:57:24;95949.34;;;16.63;67.05
77207;BME280;66190;50.708;7.906;2023-07-02T08:59:50;95942.50;;;16.82;69.27
77207;BME280;66190;50.708;7.906;2023-07-02T09:02:17;95941.34;;;16.99;68.95
77207;BME280;66190;50.708;7.906;2023-07-02T09:04:42;95940.59;;;17.04;67.42
77207;BME280;66190;50.708;7.906;2023-07-02T09:07:09;95947.66;;;17.05;66.75
77207;BME280;66190;50.708;7.906;2023-07-02T09:09:48;95961.94;;;16.90;67.39
77207;BME280;66190;50.708;7.906;2023-07-02T09:12:28;95956.97;;;16.87;66.71
77207;BME280;66190;50.708;7.906;2023-07-02T09:15:01;95954.44;;;17.02;68.05
77207;BME280;66190;50.708;7.906;2023-07-02T09:17:30;95956.84;;;16.99;67.23
77207;BME280;66190;50.708;7.906;2023-07-02T09:19:57;95966.06;;;16.98;66.09
77207;BME280;66190;50.708;7.906;2023-07-02T09:22:22;95964.06;;;16.88;65.29
77207;BME280;66190;50.708;7.906;2023-07-02T09:24:55;95966.19;;;17.08;67.21
77207;BME280;66190;50.708;7.906;2023-07-02T09:27:36;95965.28;;;17.24;65.93
77207;BME280;66190;50.708;7.906;2023-07-02T09:30:13;95963.81;;;17.17;64.35
77207;BME280;66190;50.708;7.906;2023-07-02T09:32:40;95964.97;;;17.21;65.08
77207;BME280;66190;50.708;7.906;2023-07-02T09:35:06;95971.13;;;17.11;63.75
77207;BME280;66190;50.708;7.906;2023-07-02T09:37:32;95963.66;;;17.01;65.47
77207;BME280;66190;50.708;7.906;2023-07-02T09:39:58;95965.16;;;17.14;66.11
77207;BME280;66190;50.708;7.906;2023-07-02T09:42:27;95962.34;;;17.31;64.86
77207;BME280;66190;50.708;7.906;2023-07-02T09:44:58;95978.66;;;17.31;63.23
77207;BME280;66190;50.708;7.906;2023-07-02T09:47:24;95971.50;;;17.20;62.67
77207;BME280;66190;50.708;7.906;2023-07-02T09:50:09;95968.91;;;17.35;61.77
77207;BME280;66190;50.708;7.906;2023-07-02T09:52:36;95970.50;;;17.04;61.86
77207;BME280;66190;50.708;7.906;2023-07-02T09:55:02;95969.97;;;17.07;63.18
77207;BME280;66190;50.708;7.906;2023-07-02T09:57:29;95973.03;;;17.11;63.11
77207;BME280;66190;50.708;7.906;2023-07-02T09:59:56;95981.22;;;17.16;63.21
77207;BME280;66190;50.708;7.906;2023-07-02T10:02:23;95980.53;;;17.25;64.49
77207;BME280;66190;50.708;7.906;2023-07-02T10:04:49;95978.44;;;17.32;62.91
77207;BME280;66190;50.708;7.906;2023-07-02T10:07:30;95974.31;;;17.30;62.89
77207;BME280;66190;50.708;7.906;2023-07-02T10:09:56;95994.78;;;17.37;62.68
77207;BME280;66190;50.708;7.906;2023-07-02T10:12:23;95983.97;;;17.42;63.25
77207;BME280;66190;50.708;7.906;2023-07-02T10:14:51;95980.84;;;17.29;61.86
77207;BME280;66190;50.708;7.906;2023-07-02T10:17:53;95988.88;;;17.19;62.06
77207;BME280;66190;50.708;7.906;2023-07-02T10:20:31;95984.94;;;17.31;61.76
77207;BME280;66190;50.708;7.906;2023-07-02T10:22:57;95981.63;;;17.51;61.84
77207;BME280;66190;50.708;7.906;2023-07-02T10:25:36;95965.78;;;17.74;60.29
77207;BME280;66190;50.708;7.906;2023-07-02T10:28:16;95973.19;;;17.79;61.64
77207;BME280;66190;50.708;7.906;2023-07-02T10:30:42;95967.03;;;17.93;59.28
77207;BME280;66190;50.708;7.906;2023-07-02T10:33:15;95965.81;;;18.11;60.71
77207;BME280;66190;50.708;7.906;2023-07-02T10:35:41;95965.97;;;18.31;60.59
77207;BME280;66190;50.708;7.906;2023-07-02T10:38:13;95967.41;;;18.07;58.89
77207;BME280;66190;50.708;7.906;2023-07-02T10:40:42;95968.47;;;18.01;59.65
77207;BME280;66190;50.708;7.906;2023-07-02T10:43:07;95973.91;;;18.01;59.80
77207;BME280;66190;50.708;7.906;2023-07-02T10:45:35;95972.81;;;18.02;60.24
77207;BME280;66190;50.708;7.906;2023-07-02T10:48:08;95972.97;;;18.22;61.32
77207;BME280;66190;50.708;7.906;2023-07-02T10:50:34;95961.91;;;18.39;60.52
77207;BME280;66190;50.708;7.906;2023-07-02T10:52:59;95973.53;;;18.61;61.04
77207;BME280;66190;50.708;7.906;2023-07-02T10:55:26;95978.34;;;18.49;60.17
77207;BME280;66190;50.708;7.906;2023-07-02T10:58:12;95983.75;;;18.44;60.44
77207;BME280;66190;50.708;7.906;2023-07-02T11:00:43;95972.19;;;17.90;60.15
77207;BME280;66190;50.708;7.906;2023-07-02T11:03:19;95973.91;;;18.01;62.40
77207;BME280;66190;50.708;7.906;2023-07-02T11:05:45;95986.53;;;18.12;62.55
77207;BME280;66190;50.708;7.906;2023-07-02T11:08:11;95973.03;;;17.95;62.71
77207;BME280;66190;50.708;7.906;2023-07-02T11:10:36;95969.41;;;17.85;62.03
77207;BME280;66190;50.708;7.906;2023-07-02T11:13:18;95982.19;;;17.84;61.31
77207;BME280;66190;50.708;7.906;2023-07-02T11:15:45;95990.81;;;17.71;62.48
77207;BME280;66190;50.708;7.906;2023-07-02T11:18:18;95983.03;;;17.58;61.39
77207;BME280;66190;50.708;7.906;2023-07-02T11:20:46;95988.88;;;17.67;62.31
77207;BME280;66190;50.708;7.906;2023-07-02T11:23:23;95995.22;;;17.51;62.39
77207;BME280;66190;50.708;7.906;2023-07-02T11:25:56;96001.81;;;17.33;62.06
77207;BME280;66190;50.708;7.906;2023-07-02T11:28:22;96003.38;;;17.29;63.64
77207;BME280;66190;50.708;7.906;2023-07-02T11:30:48;95999.97;;;17.39;62.82
77207;BME280;66190;50.708;7.906;2023-07-02T11:33:13;95997.69;;;17.52;63.94
77207;BME280;66190;50.708;7.906;2023-07-02T11:35:39;95999.38;;;17.58;62.47
77207;BME280;66190;50.708;7.906;2023-07-02T11:38:04;95998.06;;;17.61;62.53
77207;BME280;66190;50.708;7.906;2023-07-02T11:40:30;95993.84;;;17.75;63.23
77207;BME280;66190;50.708;7.906;2023-07-02T11:42:55;96004.50;;;17.81;62.73
77207;BME280;66190;50.708;7.906;2023-07-02T11:45:20;95993.88;;;17.80;63.42
77207;BME280;66190;50.708;7.906;2023-07-02T11:47:46;95991.72;;;17.82;62.97
77207;BME280;66190;50.708;7.906;2023-07-02T11:50:11;95999.63;;;17.83;63.03
77207;BME280;66190;50.708;7.906;2023-07-02T11:52:37;95998.22;;;17.81;61.91
77207;BME280;66190;50.708;7.906;2023-07-02T11:55:02;95999.56;;;17.78;61.62
77207;BME280;66190;50.708;7.906;2023-07-02T11:57:28;95999.28;;;17.75;61.75
77207;BME280;66190;50.708;7.906;2023-07-02T11:59:53;96006.91;;;17.78;61.03
77207;BME280;66190;50.708;7.906;2023-07-02T12:02:19;95993.09;;;17.84;62.11
77207;BME280;66190;50.708;7.906;2023-07-02T12:04:44;95987.56;;;18.06;63.11
77207;BME280;66190;50.708;7.906;2023-07-02T12:07:10;96001.44;;;18.04;62.53
77207;BME280;66190;50.708;7.906;2023-07-02T12:09:36;96001.38;;;18.31;63.28
77207;BME280;66190;50.708;7.906;2023-07-02T12:12:02;95995.88;;;18.26;62.74
77207;BME280;66190;50.708;7.906;2023-07-02T12:14:27;95988.44;;;18.11;61.02
77207;BME280;66190;50.708;7.906;2023-07-02T12:16:52;96003.34;;;18.04;62.44
77207;BME280;66190;50.708;7.906;2023-07-02T12:19:18;95994.09;;;18.05;60.01
77207;BME280;66190;50.708;7.906;2023-07-02T12:21:43;95997.88;;;18.04;58.90
77207;BME280;66190;50.708;7.906;2023-07-02T12:24:09;96000.81;;;18.29;57.83
77207;BME280;66190;50.708;7.906;2023-07-02T12:26:35;95996.69;;;18.63;61.28
77207;BME280;66190;50.708;7.906;2023-07-02T12:29:01;95991.38;;;18.88;55.01
77207;BME280;66190;50.708;7.906;2023-07-02T12:31:26;95991.72;;;19.07;54.10
77207;BME280;66190;50.708;7.906;2023-07-02T12:33:52;95981.50;;;18.77;54.83
77207;BME280;66190;50.708;7.906;2023-07-02T12:36:17;95998.09;;;18.66;54.30
77207;BME280;66190;50.708;7.906;2023-07-02T12:38:42;95990.50;;;18.36;56.16
77207;BME280;66190;50.708;7.906;2023-07-02T12:41:08;95993.59;;;18.45;56.72
77207;BME280;66190;50.708;7.906;2023-07-02T12:43:33;95994.38;;;18.40;56.82
77207;BME280;66190;50.708;7.906;2023-07-02T12:45:59;95999.09;;;18.55;57.44
77207;BME280;66190;50.708;7.906;2023-07-02T12:48:24;95995.34;;;18.66;58.18
77207;BME280;66190;50.708;7.906;2023-07-02T12:50:54;95997.28;;;18.70;57.52
77207;BME280;66190;50.708;7.906;2023-07-02T12:53:19;96005.88;;;18.52;55.64
77207;BME280;66190;50.708;7.906;2023-07-02T12:55:45;96008.47;;;18.37;55.28
77207;BME280;66190;50.708;7.906;2023-07-02T12:58:10;96003.28;;;18.31;56.34